weerbeeld Almere Meer informatie weerbeeld Almere


Onweer radar Meer informatie blitzortung!


Regen radar Meer informatie rain snow radar


Apparatuur in gebruik:

Davis VP2

Meteohub

ALIX 1D

Web-Oke


Het weer levert geen direct gevaar op.    Er zijn geen waarschuwingen afgegeven.

METAR rapporten vliegvelden

   
EHAM - Amsterdam/Schiph, Netherlands
Afstand tot: WZW 42 km
Gewijzigd: 20-10-2018 23:25
Shallow, Mist, Gedeeltelijk bewolkt  
Shallow, Mist, Gedeeltelijk bewolkt  
   Wind: ZZW 9.3 km/h
Wind: ZZW 9.3 km/h
Temperatuur: 10°C
Voelt als: 9°C
Dauwpunt: 8°C
Vochtigheid: 88%
Barometer: 1030 hPa
Bewolking: Partly Cloudy
Zicht: meer dan 10 km
Bewolking: Gedeeltelijk bewolkt ft
EHAM 202125Z 21005KT 9999 MIFG NSC 10/08 Q1030 NOSIG
EHDL - Deelen Rnlafb, Netherlands
Afstand tot: ZO 49 km
Gewijzigd: 20-10-2018 23:25
Bewolking  
Bewolking  
   Wind: Oosten 1.9 km/h
Wind: Oosten 1.9 km/h
Temperatuur: 9°C
Dauwpunt: 9°C
Vochtigheid: 100%
Barometer: 1030 hPa
Bewolking: Overcast
Zicht: meer dan 10 km
Bewolking: Bewolking 2600 ft
EHDL 202125Z AUTO 09001KT 9999 OVC026 09/09 Q1030 BLU
EHKD - De Kooy (navy), Netherlands
Afstand tot: NW 72 km
Gewijzigd: 20-10-2018 23:25
Nevel, Bewolking  
Nevel, Bewolking  
   Wind: Zuiden 9.3 km/h
Wind: Zuiden 9.3 km/h
Temperatuur: 11°C
Dauwpunt: 10°C
Vochtigheid: 94%
Barometer: 1030 hPa
Bewolking: Overcast
Zicht: 6 km
Bewolking: Licht bewolkt 1600 ft,
Bewolking 5000 ft
EHKD 202125Z AUTO 19005KT 6000 BR FEW016 OVC050 11/10 Q1030 WHT
EHRD - Rotterdam Airpor, Netherlands
Afstand tot: ZW 80 km
Gewijzigd: 20-10-2018 23:25
Helder  
Helder  
   Wind: ZZO 3.7 km/h
Wind: ZZO 3.7 km/h
Temperatuur: 8°C
Dauwpunt: 8°C
Vochtigheid: 100%
Barometer: 1030 hPa
Bewolking: Clear
Zicht: 6 km
Bewolking: Helder ft
EHRD 202125Z AUTO 16002KT 6000 NCD 08/08 Q1030 TEMPO 3000 MIFG BR
EHVK - Volkel Rnlafb, Netherlands
Afstand tot: ZZO 87 km
Gewijzigd: 20-10-2018 23:41
Nevel, Helder  
Nevel, Helder  
   Wind: Kalm
Wind: Kalm
Temperatuur: 5°C
Dauwpunt: 5°C
Vochtigheid: 100%
Barometer: 1031 hPa
Bewolking: Clear
Zicht: 7 km
Bewolking: Helder ft
EHVK 202141Z AUTO 00000KT 7000 BR NCD 05/05 Q1031 WHT
EHLW - Leeuwarden Rnlaf, Netherlands
Afstand tot: NNO 95 km
Gewijzigd: 20-10-2018 23:25
Nevel, Bewolking  
Nevel, Bewolking  
   Wind: ZZW 9.3 km/h
Wind: ZZW 9.3 km/h
Temperatuur: 10°C
Voelt als: 9°C
Dauwpunt: 9°C
Vochtigheid: 94%
Barometer: 1029 hPa
Bewolking: Overcast
Zicht: 4 km
Bewolking: Licht bewolkt 3900 ft,
Bewolking 21000 ft
EHLW 202125Z AUTO 21005KT 4200 BR FEW039 OVC210 10/09 Q1029 GRN

Script ontwikkeld door  Saratoga-weather.org Aangepast voor de template door  Weerstation Leuven

U vindt ons ook hier:

Het Weer Aktueel

UK Metoffice

European Weather Network

Weather Underground

AWEKAS